KOGB/OGB METAR and TAF weather

Enter ICAO airport designator
Station Type Date Time Source
KOGB METAR 2022/01/26 14:53 UTC NOAA

KOGB 261453Z AUTO 05012G15KT 10SM CLR 07/02 A3023 RMK AO2 SLP237 T00720017 53027 $


Station Type Date Time Source
KOGB Decoded METAR 2022/01/26 14:53 UTC NOAA

ORANGEBURG MUNICIPAL AIRPORT, SC, United States (KOGB) 33-28N 080-51W 59M
Jan 26, 2022 - 09:53 AM EST / 2022.01.26 1453 UTC
Wind: from the NE (050 degrees) at 14 MPH (12 KT) gusting to 17 MPH (15 KT):0
Visibility: 10 mile(s):0
Sky conditions: clear
Temperature: 45.0 F (7.2 C)
Dew Point: 35.1 F (1.7 C)
Relative Humidity: 68%
Pressure (altimeter): 30.23 in. Hg (1023 hPa)
Pressure tendency: 0.08 inches (2.7 hPa) higher than three hours ago
ob: KOGB 261453Z AUTO 05012G15KT 10SM CLR 07/02 A3023 RMK AO2 SLP237 T00720017 53027
cycle: 15

Station Type Date Time Source
KOGB TAF 2022/01/26 15:58 UTC NOAA

TAF KOGB 261457Z 2615/2712 04010KT P6SM SKC
FM261700 04012KT P6SM SCT025
FM270000 05005KT P6SM SKC

Example: see airport list